Main page
METAR-TAF:

METAR-TAF

Airports :

RAF Valley

Valley, Wales

latitude: 53-15N, longitude: 004-32W, elevation: 1 m

Current weather observation

The report was made 25 minutes ago, at 00:50 UTC
Wind 22 kt from the West/Southwest
Temperature 6°C
Humidity 75%
Pressure 1014 hPa
Visibility 10 km or more

METAR: EGOV 180050Z AUTO 24022KT 9999 FEW021/// 06/02 Q1014

Time: 01:15 (01:15 UTC)

Forecast

The report was made 11 hours and 35 minutes ago, at 13:40 UTC
Forecast valid from 17 at 15 UTC to 17 at 20 UTC
Wind 21 kt from the West/Southwest with gusts up to 31 kt
Visibility 10 km or more
Few clouds at a height of 2200 ft
Scattered clouds at a height of 4000 ft
Probability 30% :
Temporary
from 17 at 15 UTC to 17 at 19 UTC
Visibility: 7000 m
Scattered clouds at a height of 2000 ft, Cumulonimbus.
rain showers

TAF: EGOV 171340Z 1715/1720 24021G31KT 9999 FEW022 SCT040 PROB30 TEMPO 1715/1719 7000 SHRA SCT020CB

Weather observations and forecasts of more than 4000 airports (METAR and TAF reports).

The available stations are represented by yellow and red dots on the map.

Hover mouse over dot to see the name of the station.

Then click to see weather observations and forecasts.

To change the map : click on the green buttons with a black cross to zoom in, on the green button with a dash to zoom out, or on the green arrows for adjacent maps.


METAR-TAF: